sensor_id;sensor_type;location;lat;lon;timestamp;pressure;altitude;pressure_sealevel;temperature;humidity
56518;BME280;42419;48.760;2.322;2023-04-28T00:00:10;100482.06;;;22.84;38.87
56518;BME280;42419;48.760;2.322;2023-04-28T00:02:36;100483.88;;;22.83;38.75
56518;BME280;42419;48.760;2.322;2023-04-28T00:05:01;100485.63;;;22.84;39.04
56518;BME280;42419;48.760;2.322;2023-04-28T00:07:27;100483.88;;;22.83;39.14
56518;BME280;42419;48.760;2.322;2023-04-28T00:09:52;100487.50;;;22.82;39.04
56518;BME280;42419;48.760;2.322;2023-04-28T00:12:17;100485.88;;;22.80;38.96
56518;BME280;42419;48.760;2.322;2023-04-28T00:14:43;100491.13;;;22.81;38.91
56518;BME280;42419;48.760;2.322;2023-04-28T00:17:08;100475.72;;;22.69;39.15
56518;BME280;42419;48.760;2.322;2023-04-28T00:19:34;100487.59;;;22.81;39.12
56518;BME280;42419;48.760;2.322;2023-04-28T00:22:00;100484.91;;;22.81;38.90
56518;BME280;42419;48.760;2.322;2023-04-28T00:24:25;100480.41;;;22.81;39.08
56518;BME280;42419;48.760;2.322;2023-04-28T00:26:50;100489.31;;;22.82;39.23
56518;BME280;42419;48.760;2.322;2023-04-28T00:29:16;100480.41;;;22.81;39.11
56518;BME280;42419;48.760;2.322;2023-04-28T00:31:42;100484.03;;;22.80;39.23
56518;BME280;42419;48.760;2.322;2023-04-28T00:34:07;100485.78;;;22.81;39.11
56518;BME280;42419;48.760;2.322;2023-04-28T00:36:32;100493.81;;;22.81;39.31
56518;BME280;42419;48.760;2.322;2023-04-28T00:38:58;100491.13;;;22.81;39.34
56518;BME280;42419;48.760;2.322;2023-04-28T00:41:23;100482.22;;;22.81;39.02
56518;BME280;42419;48.760;2.322;2023-04-28T00:43:49;100483.09;;;22.81;39.22
56518;BME280;42419;48.760;2.322;2023-04-28T00:46:26;100484.91;;;22.81;39.51
56518;BME280;42419;48.760;2.322;2023-04-28T00:48:53;100461.16;;;22.73;39.13
56518;BME280;42419;48.760;2.322;2023-04-28T00:51:19;100484.81;;;22.82;39.11
56518;BME280;42419;48.760;2.322;2023-04-28T00:53:45;100455.13;;;22.70;39.34
56518;BME280;42419;48.760;2.322;2023-04-28T00:56:12;100482.22;;;22.81;39.20
56518;BME280;42419;48.760;2.322;2023-04-28T00:58:37;100475.53;;;22.72;39.31
56518;BME280;42419;48.760;2.322;2023-04-28T01:01:07;100490.13;;;22.84;39.49
56518;BME280;42419;48.760;2.322;2023-04-28T01:03:35;100488.38;;;22.83;39.07
56518;BME280;42419;48.760;2.322;2023-04-28T01:06:03;100468.44;;;22.71;39.67
56518;BME280;42419;48.760;2.322;2023-04-28T01:08:29;100492.88;;;22.82;39.54
56518;BME280;42419;48.760;2.322;2023-04-28T01:10:55;100489.31;;;22.82;39.49
56518;BME280;42419;48.760;2.322;2023-04-28T01:13:21;100473.78;;;22.71;39.44
56518;BME280;42419;48.760;2.322;2023-04-28T01:15:46;100479.63;;;22.79;39.48
56518;BME280;42419;48.760;2.322;2023-04-28T01:18:11;100476.69;;;22.84;39.37
56518;BME280;42419;48.760;2.322;2023-04-28T01:20:37;100488.31;;;22.84;39.55
56518;BME280;42419;48.760;2.322;2023-04-28T01:23:03;100477.56;;;22.84;39.38
56518;BME280;42419;48.760;2.322;2023-04-28T01:25:28;100483.88;;;22.83;39.71
56518;BME280;42419;48.760;2.322;2023-04-28T01:27:53;100482.06;;;22.84;39.67
56518;BME280;42419;48.760;2.322;2023-04-28T01:30:19;100478.50;;;22.83;39.57
56518;BME280;42419;48.760;2.322;2023-04-28T01:32:45;100471.41;;;22.82;39.62
56518;BME280;42419;48.760;2.322;2023-04-28T01:35:10;100478.50;;;22.83;39.65
56518;BME280;42419;48.760;2.322;2023-04-28T01:37:35;100483.88;;;22.83;39.57
56518;BME280;42419;48.760;2.322;2023-04-28T01:40:01;100481.09;;;22.85;39.52
56518;BME280;42419;48.760;2.322;2023-04-28T01:42:26;100478.41;;;22.85;39.65
56518;BME280;42419;48.760;2.322;2023-04-28T01:44:51;100483.88;;;22.83;39.67
56518;BME280;42419;48.760;2.322;2023-04-28T01:47:17;100476.78;;;22.82;39.68
56518;BME280;42419;48.760;2.322;2023-04-28T01:49:42;100435.97;;;22.60;39.44
56518;BME280;42419;48.760;2.322;2023-04-28T01:52:07;100434.63;;;22.52;39.87
56518;BME280;42419;48.760;2.322;2023-04-28T01:54:33;100481.19;;;22.83;39.71
56518;BME280;42419;48.760;2.322;2023-04-28T01:56:58;100479.38;;;22.84;39.58
56518;BME280;42419;48.760;2.322;2023-04-28T01:59:23;100464.47;;;22.78;39.70
56518;BME280;42419;48.760;2.322;2023-04-28T02:01:48;100472.28;;;22.83;39.68
56518;BME280;42419;48.760;2.322;2023-04-28T02:04:14;100467.78;;;22.83;39.72
56518;BME280;42419;48.760;2.322;2023-04-28T02:06:39;100466.91;;;22.83;40.18
56518;BME280;42419;48.760;2.322;2023-04-28T02:09:04;100480.31;;;22.83;39.61
56518;BME280;42419;48.760;2.322;2023-04-28T02:11:30;100481.19;;;22.83;39.83
56518;BME280;42419;48.760;2.322;2023-04-28T02:13:55;100483.88;;;22.83;39.69
56518;BME280;42419;48.760;2.322;2023-04-28T02:16:21;100470.16;;;22.72;39.75
56518;BME280;42419;48.760;2.322;2023-04-28T02:18:46;100480.31;;;22.83;39.85
56518;BME280;42419;48.760;2.322;2023-04-28T02:21:11;100483.94;;;22.82;39.84
56518;BME280;42419;48.760;2.322;2023-04-28T02:23:38;100486.63;;;22.82;40.04
56518;BME280;42419;48.760;2.322;2023-04-28T02:26:03;100483.94;;;22.82;39.99
56518;BME280;42419;48.760;2.322;2023-04-28T02:28:29;100491.13;;;22.81;39.98
56518;BME280;42419;48.760;2.322;2023-04-28T02:31:07;100490.19;;;22.82;40.01
56518;BME280;42419;48.760;2.322;2023-04-28T02:33:34;100492.88;;;22.82;39.79
56518;BME280;42419;48.760;2.322;2023-04-28T02:36:00;100498.25;;;22.82;39.82
56518;BME280;42419;48.760;2.322;2023-04-28T02:38:25;100470.34;;;22.69;40.07
56518;BME280;42419;48.760;2.322;2023-04-28T02:40:58;100507.16;;;22.83;39.83
56518;BME280;42419;48.760;2.322;2023-04-28T02:43:24;100493.75;;;22.83;40.00
56518;BME280;42419;48.760;2.322;2023-04-28T02:45:50;100493.75;;;22.83;40.21
56518;BME280;42419;48.760;2.322;2023-04-28T02:48:16;100484.81;;;22.82;39.66
56518;BME280;42419;48.760;2.322;2023-04-28T02:50:41;100486.63;;;22.82;40.00
56518;BME280;42419;48.760;2.322;2023-04-28T02:53:06;100487.50;;;22.82;39.90
56518;BME280;42419;48.760;2.322;2023-04-28T02:55:31;100489.31;;;22.82;39.93
56518;BME280;42419;48.760;2.322;2023-04-28T02:57:57;100481.28;;;22.82;40.02
56518;BME280;42419;48.760;2.322;2023-04-28T03:00:22;100466.59;;;22.72;39.97
56518;BME280;42419;48.760;2.322;2023-04-28T03:02:47;100478.66;;;22.80;40.24
56518;BME280;42419;48.760;2.322;2023-04-28T03:05:13;100466.09;;;22.81;40.16
56518;BME280;42419;48.760;2.322;2023-04-28T03:07:38;100465.16;;;22.82;40.14
56518;BME280;42419;48.760;2.322;2023-04-28T03:10:04;100444.81;;;22.78;40.13
56518;BME280;42419;48.760;2.322;2023-04-28T03:12:29;100449.13;;;22.80;40.08
56518;BME280;42419;48.760;2.322;2023-04-28T03:14:54;100460.75;;;22.81;40.26
56518;BME280;42419;48.760;2.322;2023-04-28T03:17:20;100459.88;;;22.80;40.51
56518;BME280;42419;48.760;2.322;2023-04-28T03:19:45;100444.44;;;22.68;40.41
56518;BME280;42419;48.760;2.322;2023-04-28T03:22:10;100460.84;;;22.79;40.18
56518;BME280;42419;48.760;2.322;2023-04-28T03:24:36;100456.34;;;22.80;40.44
56518;BME280;42419;48.760;2.322;2023-04-28T03:27:01;100458.91;;;22.81;40.36
56518;BME280;42419;48.760;2.322;2023-04-28T03:29:27;100462.47;;;22.82;40.24
56518;BME280;42419;48.760;2.322;2023-04-28T03:31:53;100464.28;;;22.81;40.14
56518;BME280;42419;48.760;2.322;2023-04-28T03:34:18;100472.34;;;22.81;40.21
56518;BME280;42419;48.760;2.322;2023-04-28T03:36:43;100464.28;;;22.81;40.15
56518;BME280;42419;48.760;2.322;2023-04-28T03:39:09;100433.78;;;22.67;40.32
56518;BME280;42419;48.760;2.322;2023-04-28T03:41:34;100464.28;;;22.81;40.38
56518;BME280;42419;48.760;2.322;2023-04-28T03:43:59;100468.72;;;22.82;40.48
56518;BME280;42419;48.760;2.322;2023-04-28T03:46:25;100481.28;;;22.82;40.14
56518;BME280;42419;48.760;2.322;2023-04-28T03:48:50;100481.28;;;22.82;40.46
56518;BME280;42419;48.760;2.322;2023-04-28T03:51:15;100479.47;;;22.82;40.45
56518;BME280;42419;48.760;2.322;2023-04-28T03:53:41;100481.28;;;22.82;40.08
56518;BME280;42419;48.760;2.322;2023-04-28T03:56:06;100475.13;;;22.80;40.20
56518;BME280;42419;48.760;2.322;2023-04-28T03:58:31;100477.56;;;22.84;40.49
56518;BME280;42419;48.760;2.322;2023-04-28T04:00:57;100478.50;;;22.83;40.07
56518;BME280;42419;48.760;2.322;2023-04-28T04:03:24;100480.31;;;22.83;40.33
56518;BME280;42419;48.760;2.322;2023-04-28T04:05:51;100484.75;;;22.84;40.33
56518;BME280;42419;48.760;2.322;2023-04-28T04:08:17;100481.19;;;22.83;40.27
56518;BME280;42419;48.760;2.322;2023-04-28T04:10:43;100474.00;;;22.84;40.40
56518;BME280;42419;48.760;2.322;2023-04-28T04:13:08;100476.78;;;22.82;40.31
56518;BME280;42419;48.760;2.322;2023-04-28T04:15:34;100471.41;;;22.82;40.40
56518;BME280;42419;48.760;2.322;2023-04-28T04:17:59;100482.13;;;22.82;40.36
56518;BME280;42419;48.760;2.322;2023-04-28T04:20:25;100465.66;;;22.73;40.43
56518;BME280;42419;48.760;2.322;2023-04-28T04:22:50;100485.69;;;22.83;40.58
56518;BME280;42419;48.760;2.322;2023-04-28T04:25:15;100482.13;;;22.82;40.32
56518;BME280;42419;48.760;2.322;2023-04-28T04:27:41;100491.06;;;22.83;40.42
56518;BME280;42419;48.760;2.322;2023-04-28T04:30:06;100481.28;;;22.82;40.67
56518;BME280;42419;48.760;2.322;2023-04-28T04:32:32;100486.63;;;22.82;40.64
56518;BME280;42419;48.760;2.322;2023-04-28T04:34:57;100487.50;;;22.82;40.59
56518;BME280;42419;48.760;2.322;2023-04-28T04:37:22;100490.19;;;22.82;40.74
56518;BME280;42419;48.760;2.322;2023-04-28T04:39:48;100476.94;;;22.79;40.50
56518;BME280;42419;48.760;2.322;2023-04-28T04:42:13;100488.38;;;22.83;40.60
56518;BME280;42419;48.760;2.322;2023-04-28T04:44:38;100487.50;;;22.82;40.51
56518;BME280;42419;48.760;2.322;2023-04-28T04:47:04;100490.13;;;22.84;40.76
56518;BME280;42419;48.760;2.322;2023-04-28T04:49:29;100494.75;;;22.80;40.64
56518;BME280;42419;48.760;2.322;2023-04-28T04:51:54;100490.28;;;22.81;40.81
56518;BME280;42419;48.760;2.322;2023-04-28T04:54:20;100467.91;;;22.65;40.92
56518;BME280;42419;48.760;2.322;2023-04-28T04:56:45;100492.88;;;22.82;40.82
56518;BME280;42419;48.760;2.322;2023-04-28T04:59:10;100493.56;;;22.86;40.76
56518;BME280;42419;48.760;2.322;2023-04-28T05:01:36;100498.88;;;22.88;40.74
56518;BME280;42419;48.760;2.322;2023-04-28T05:04:01;100500.59;;;22.89;41.17
56518;BME280;42419;48.760;2.322;2023-04-28T05:06:27;100491.00;;;22.84;41.00
56518;BME280;42419;48.760;2.322;2023-04-28T05:08:52;100505.19;;;22.87;41.04
56518;BME280;42419;48.760;2.322;2023-04-28T05:11:17;100507.09;;;22.84;41.37
56518;BME280;42419;48.760;2.322;2023-04-28T05:13:43;100511.66;;;22.82;41.72
56518;BME280;42419;48.760;2.322;2023-04-28T05:16:08;100508.66;;;22.89;41.91
56518;BME280;42419;48.760;2.322;2023-04-28T05:18:33;100511.16;;;22.92;41.21
56518;BME280;42419;48.760;2.322;2023-04-28T05:20:59;100516.47;;;22.93;41.71
56518;BME280;42419;48.760;2.322;2023-04-28T05:23:25;100522.84;;;22.91;41.69
56518;BME280;42419;48.760;2.322;2023-04-28T05:25:50;100518.34;;;22.91;41.47
56518;BME280;42419;48.760;2.322;2023-04-28T05:28:16;100520.16;;;22.91;41.73
56518;BME280;42419;48.760;2.322;2023-04-28T05:30:41;100513.78;;;22.93;41.40
56518;BME280;42419;48.760;2.322;2023-04-28T05:33:09;100521.72;;;22.95;41.62
56518;BME280;42419;48.760;2.322;2023-04-28T05:35:34;100523.47;;;22.96;41.38
56518;BME280;42419;48.760;2.322;2023-04-28T05:38:00;100525.09;;;22.98;41.61
56518;BME280;42419;48.760;2.322;2023-04-28T05:40:25;100523.41;;;22.97;41.35
56518;BME280;42419;48.760;2.322;2023-04-28T05:42:51;100512.72;;;22.96;41.45
56518;BME280;42419;48.760;2.322;2023-04-28T05:45:17;100511.09;;;22.93;41.49
56518;BME280;42419;48.760;2.322;2023-04-28T05:47:42;100492.81;;;22.84;41.14
56518;BME280;42419;48.760;2.322;2023-04-28T05:50:08;100521.66;;;22.96;41.43
56518;BME280;42419;48.760;2.322;2023-04-28T05:52:34;100520.78;;;22.96;41.38
56518;BME280;42419;48.760;2.322;2023-04-28T05:54:59;100513.53;;;22.98;41.40
56518;BME280;42419;48.760;2.322;2023-04-28T05:57:24;100442.59;;;22.53;41.50
56518;BME280;42419;48.760;2.322;2023-04-28T05:59:50;100520.72;;;22.97;41.30
56518;BME280;42419;48.760;2.322;2023-04-28T06:02:15;100513.06;;;22.90;41.63
56518;BME280;42419;48.760;2.322;2023-04-28T06:04:41;100520.59;;;22.99;41.50
56518;BME280;42419;48.760;2.322;2023-04-28T06:07:07;100524.09;;;23.01;41.62
56518;BME280;42419;48.760;2.322;2023-04-28T06:09:32;100528.50;;;23.02;41.43
56518;BME280;42419;48.760;2.322;2023-04-28T06:11:57;100532.91;;;23.03;41.52
56518;BME280;42419;48.760;2.322;2023-04-28T06:14:23;100534.66;;;23.04;40.79
56518;BME280;42419;48.760;2.322;2023-04-28T06:16:49;100519.97;;;22.94;41.58
56518;BME280;42419;48.760;2.322;2023-04-28T06:19:15;100536.47;;;23.03;41.52
56518;BME280;42419;48.760;2.322;2023-04-28T06:21:43;100532.91;;;23.03;41.40
56518;BME280;42419;48.760;2.322;2023-04-28T06:24:08;100479.16;;;22.71;41.66
56518;BME280;42419;48.760;2.322;2023-04-28T06:26:33;100528.22;;;22.91;41.61
56518;BME280;42419;48.760;2.322;2023-04-28T06:28:59;100531.69;;;22.93;41.51
56518;BME280;42419;48.760;2.322;2023-04-28T06:31:24;100545.81;;;22.96;41.52
56518;BME280;42419;48.760;2.322;2023-04-28T06:33:50;100527.34;;;22.90;41.45
56518;BME280;42419;48.760;2.322;2023-04-28T06:36:15;100537.75;;;22.96;41.22
56518;BME280;42419;48.760;2.322;2023-04-28T06:38:42;100546.69;;;22.97;41.57
56518;BME280;42419;48.760;2.322;2023-04-28T06:41:08;100536.03;;;22.95;41.26
56518;BME280;42419;48.760;2.322;2023-04-28T06:43:33;100544.00;;;22.97;41.07
56518;BME280;42419;48.760;2.322;2023-04-28T06:45:59;100539.50;;;22.97;41.50
56518;BME280;42419;48.760;2.322;2023-04-28T06:48:25;100536.09;;;22.94;41.18
56518;BME280;42419;48.760;2.322;2023-04-28T06:50:50;100534.22;;;22.96;41.36
56518;BME280;42419;48.760;2.322;2023-04-28T06:53:16;100543.81;;;23.00;41.18
56518;BME280;42419;48.760;2.322;2023-04-28T06:55:41;100553.81;;;22.98;41.33
56518;BME280;42419;48.760;2.322;2023-04-28T06:58:07;100537.94;;;22.93;41.18
56518;BME280;42419;48.760;2.322;2023-04-28T07:00:33;100530.28;;;22.85;41.19
56518;BME280;42419;48.760;2.322;2023-04-28T07:02:58;100551.13;;;22.98;41.15
56518;BME280;42419;48.760;2.322;2023-04-28T07:05:23;100552.81;;;22.99;40.89
56518;BME280;42419;48.760;2.322;2023-04-28T07:07:49;100561.84;;;22.98;41.17
56518;BME280;42419;48.760;2.322;2023-04-28T07:10:14;100549.69;;;22.91;41.49
56518;BME280;42419;48.760;2.322;2023-04-28T07:12:40;100555.69;;;22.96;41.29
56518;BME280;42419;48.760;2.322;2023-04-28T07:15:06;100558.38;;;22.96;41.10
56518;BME280;42419;48.760;2.322;2023-04-28T07:17:31;100568.25;;;22.95;41.19
56518;BME280;42419;48.760;2.322;2023-04-28T07:19:57;100558.38;;;22.96;41.14
56518;BME280;42419;48.760;2.322;2023-04-28T07:22:23;100564.69;;;22.95;41.15
56518;BME280;42419;48.760;2.322;2023-04-28T07:24:48;100569.19;;;22.94;41.21
56518;BME280;42419;48.760;2.322;2023-04-28T07:27:13;100549.19;;;22.84;41.41
56518;BME280;42419;48.760;2.322;2023-04-28T07:29:39;100549.06;;;22.85;41.37
56518;BME280;42419;48.760;2.322;2023-04-28T07:32:04;100570.06;;;22.95;41.25
56518;BME280;42419;48.760;2.322;2023-04-28T07:34:32;100560.44;;;22.91;41.21
56518;BME280;42419;48.760;2.322;2023-04-28T07:36:57;100560.25;;;22.94;41.49
56518;BME280;42419;48.760;2.322;2023-04-28T07:39:23;100569.38;;;22.91;41.16
56518;BME280;42419;48.760;2.322;2023-04-28T07:41:49;100565.81;;;22.91;41.46
56518;BME280;42419;48.760;2.322;2023-04-28T07:44:14;100565.81;;;22.91;41.33
56518;BME280;42419;48.760;2.322;2023-04-28T07:46:40;100554.56;;;22.84;41.48
56518;BME280;42419;48.760;2.322;2023-04-28T07:49:05;100570.22;;;22.92;41.58
56518;BME280;42419;48.760;2.322;2023-04-28T07:51:32;100560.84;;;22.83;41.43
56518;BME280;42419;48.760;2.322;2023-04-28T07:53:58;100573.78;;;22.92;41.54
56518;BME280;42419;48.760;2.322;2023-04-28T07:56:23;100580.09;;;22.91;41.72
56518;BME280;42419;48.760;2.322;2023-04-28T07:58:48;100580.97;;;22.92;41.65
56518;BME280;42419;48.760;2.322;2023-04-28T08:01:15;100577.41;;;22.91;41.75
56518;BME280;42419;48.760;2.322;2023-04-28T08:03:40;100582.78;;;22.91;41.74
56518;BME280;42419;48.760;2.322;2023-04-28T08:06:06;100583.66;;;22.92;41.58
56518;BME280;42419;48.760;2.322;2023-04-28T08:08:31;100589.03;;;22.92;42.09
56518;BME280;42419;48.760;2.322;2023-04-28T08:10:56;100586.34;;;22.92;41.55
56518;BME280;42419;48.760;2.322;2023-04-28T08:13:23;100577.41;;;22.91;41.61
56518;BME280;42419;48.760;2.322;2023-04-28T08:15:48;100586.34;;;22.92;41.89
56518;BME280;42419;48.760;2.322;2023-04-28T08:18:14;100567.16;;;22.82;41.72
56518;BME280;42419;48.760;2.322;2023-04-28T08:20:40;100587.28;;;22.91;41.81
56518;BME280;42419;48.760;2.322;2023-04-28T08:23:06;100587.28;;;22.91;41.98
56518;BME280;42419;48.760;2.322;2023-04-28T08:25:31;100564.81;;;22.76;41.87
56518;BME280;42419;48.760;2.322;2023-04-28T08:27:56;100593.53;;;22.91;42.24
56518;BME280;42419;48.760;2.322;2023-04-28T08:30:22;100593.59;;;22.90;42.33
56518;BME280;42419;48.760;2.322;2023-04-28T08:32:48;100598.13;;;22.89;42.17
56518;BME280;42419;48.760;2.322;2023-04-28T08:35:13;100591.88;;;22.89;42.38
56518;BME280;42419;48.760;2.322;2023-04-28T08:37:39;100596.47;;;22.87;42.11
56518;BME280;42419;48.760;2.322;2023-04-28T08:40:05;100588.41;;;22.87;42.15
56518;BME280;42419;48.760;2.322;2023-04-28T08:42:34;100584.16;;;22.82;42.17
56518;BME280;42419;48.760;2.322;2023-04-28T08:45:02;100587.63;;;22.84;41.97
56518;BME280;42419;48.760;2.322;2023-04-28T08:47:36;100579.66;;;22.83;42.06
56518;BME280;42419;48.760;2.322;2023-04-28T08:50:10;100591.34;;;22.82;42.26
56518;BME280;42419;48.760;2.322;2023-04-28T08:52:37;100574.94;;;22.71;42.08
56518;BME280;42419;48.760;2.322;2023-04-28T08:55:10;100594.88;;;22.82;42.30
56518;BME280;42419;48.760;2.322;2023-04-28T08:57:38;100579.44;;;22.70;41.98
56518;BME280;42419;48.760;2.322;2023-04-28T09:00:04;100597.56;;;22.82;42.27
56518;BME280;42419;48.760;2.322;2023-04-28T09:02:30;100600.31;;;22.81;42.39
56518;BME280;42419;48.760;2.322;2023-04-28T09:04:57;100603.13;;;22.79;42.27
56518;BME280;42419;48.760;2.322;2023-04-28T09:07:22;100596.00;;;22.78;42.32
56518;BME280;42419;48.760;2.322;2023-04-28T09:09:47;100581.41;;;22.67;42.43
56518;BME280;42419;48.760;2.322;2023-04-28T09:12:13;100604.06;;;22.78;42.53
56518;BME280;42419;48.760;2.322;2023-04-28T09:14:38;100603.19;;;22.78;42.67
56518;BME280;42419;48.760;2.322;2023-04-28T09:17:13;100606.81;;;22.77;42.92
56518;BME280;42419;48.760;2.322;2023-04-28T09:19:40;100596.41;;;22.71;42.48
56518;BME280;42419;48.760;2.322;2023-04-28T09:22:08;100615.97;;;22.73;42.90
56518;BME280;42419;48.760;2.322;2023-04-28T09:24:36;100611.66;;;22.70;42.53
56518;BME280;42419;48.760;2.322;2023-04-28T09:27:05;100612.59;;;22.69;42.76
56518;BME280;42419;48.760;2.322;2023-04-28T09:29:32;100609.09;;;22.67;42.81
56518;BME280;42419;48.760;2.322;2023-04-28T09:34:49;100612.84;;;22.65;42.92
56518;BME280;42419;48.760;2.322;2023-04-28T09:39:42;100600.84;;;22.55;42.75
56518;BME280;42419;48.760;2.322;2023-04-28T09:42:07;100615.59;;;22.63;43.14
56518;BME280;42419;48.760;2.322;2023-04-28T09:44:32;100606.13;;;22.56;43.00
56518;BME280;42419;48.760;2.322;2023-04-28T09:46:58;100617.50;;;22.61;42.79
56518;BME280;42419;48.760;2.322;2023-04-28T09:49:23;100613.13;;;22.59;43.11
56518;BME280;42419;48.760;2.322;2023-04-28T09:51:48;100623.81;;;22.60;42.81
56518;BME280;42419;48.760;2.322;2023-04-28T09:54:14;100620.25;;;22.60;43.07
56518;BME280;42419;48.760;2.322;2023-04-28T09:56:41;100605.47;;;22.51;42.88
56518;BME280;42419;48.760;2.322;2023-04-28T09:59:08;100628.31;;;22.60;42.89
56518;BME280;42419;48.760;2.322;2023-04-28T10:01:40;100630.97;;;22.60;42.98
56518;BME280;42419;48.760;2.322;2023-04-28T10:04:08;100622.94;;;22.60;43.03
56518;BME280;42419;48.760;2.322;2023-04-28T10:06:35;100605.41;;;22.53;42.70
56518;BME280;42419;48.760;2.322;2023-04-28T10:09:01;100630.91;;;22.61;42.82
56518;BME280;42419;48.760;2.322;2023-04-28T10:11:26;100615.13;;;22.55;42.99
56518;BME280;42419;48.760;2.322;2023-04-28T10:13:53;100619.31;;;22.61;42.85
56518;BME280;42419;48.760;2.322;2023-04-28T10:16:19;100616.63;;;22.61;42.90
56518;BME280;42419;48.760;2.322;2023-04-28T10:18:44;100626.50;;;22.60;43.06
56518;BME280;42419;48.760;2.322;2023-04-28T10:21:11;100626.50;;;22.60;42.91
56518;BME280;42419;48.760;2.322;2023-04-28T10:24:44;100630.97;;;22.60;43.01
56518;BME280;42419;48.760;2.322;2023-04-28T10:27:01;100636.34;;;22.60;42.65
56518;BME280;42419;48.760;2.322;2023-04-28T10:29:29;100632.91;;;22.58;42.92
56518;BME280;42419;48.760;2.322;2023-04-28T10:32:19;100632.91;;;22.58;42.90
56518;BME280;42419;48.760;2.322;2023-04-28T10:34:45;100635.66;;;22.56;42.94
56518;BME280;42419;48.760;2.322;2023-04-28T10:37:11;100635.47;;;22.59;43.11
56518;BME280;42419;48.760;2.322;2023-04-28T10:39:39;100641.72;;;22.60;43.35
56518;BME280;42419;48.760;2.322;2023-04-28T10:45:08;100642.81;;;22.56;43.97
56518;BME280;42419;48.760;2.322;2023-04-28T10:47:59;100644.63;;;22.55;44.49
56518;BME280;42419;48.760;2.322;2023-04-28T10:50:30;100634.97;;;22.51;43.97
56518;BME280;42419;48.760;2.322;2023-04-28T10:52:55;100620.75;;;22.49;43.95
56518;BME280;42419;48.760;2.322;2023-04-28T10:55:27;100638.47;;;22.53;43.76
56518;BME280;42419;48.760;2.322;2023-04-28T11:00:45;100636.66;;;22.54;44.08
56518;BME280;42419;48.760;2.322;2023-04-28T11:06:31;100641.28;;;22.50;43.88
56518;BME280;42419;48.760;2.322;2023-04-28T11:16:55;100636.25;;;22.44;44.40
56518;BME280;42419;48.760;2.322;2023-04-28T11:19:25;100634.56;;;22.41;44.00
56518;BME280;42419;48.760;2.322;2023-04-28T11:21:52;100643.50;;;22.42;43.94
56518;BME280;42419;48.760;2.322;2023-04-28T11:24:19;100626.84;;;22.35;43.90
56518;BME280;42419;48.760;2.322;2023-04-28T11:26:44;100633.81;;;22.39;44.17
56518;BME280;42419;48.760;2.322;2023-04-28T11:29:10;100632.84;;;22.40;44.05
56518;BME280;42419;48.760;2.322;2023-04-28T11:31:36;100635.63;;;22.39;44.37
56518;BME280;42419;48.760;2.322;2023-04-28T11:34:04;100615.56;;;22.29;44.25
56518;BME280;42419;48.760;2.322;2023-04-28T11:36:32;100633.63;;;22.42;44.72
56518;BME280;42419;48.760;2.322;2023-04-28T11:38:59;100616.84;;;22.39;44.30
56518;BME280;42419;48.760;2.322;2023-04-28T11:41:25;100606.97;;;22.39;44.46
56518;BME280;42419;48.760;2.322;2023-04-28T11:43:51;100617.06;;;22.52;44.54
56518;BME280;42419;48.760;2.322;2023-04-28T11:46:21;100615.19;;;22.54;44.39
56518;BME280;42419;48.760;2.322;2023-04-28T11:48:47;100599.47;;;22.46;44.08
56518;BME280;42419;48.760;2.322;2023-04-28T11:51:33;100615.81;;;22.59;44.06
56518;BME280;42419;48.760;2.322;2023-04-28T11:53:59;100625.56;;;22.61;44.07
56518;BME280;42419;48.760;2.322;2023-04-28T11:56:26;100603.97;;;22.63;44.14
56518;BME280;42419;48.760;2.322;2023-04-28T11:59:01;100605.56;;;22.67;43.84
56518;BME280;42419;48.760;2.322;2023-04-28T12:01:29;100608.09;;;22.70;44.00
56518;BME280;42419;48.760;2.322;2023-04-28T12:03:55;100607.22;;;22.69;43.70
56518;BME280;42419;48.760;2.322;2023-04-28T12:06:20;100609.75;;;22.72;43.81
56518;BME280;42419;48.760;2.322;2023-04-28T12:08:46;100613.28;;;22.73;43.68
56518;BME280;42419;48.760;2.322;2023-04-28T12:11:12;100616.69;;;22.76;43.58
56518;BME280;42419;48.760;2.322;2023-04-28T12:13:38;100572.88;;;22.59;43.72
56518;BME280;42419;48.760;2.322;2023-04-28T12:16:07;100605.06;;;22.76;43.69
56518;BME280;42419;48.760;2.322;2023-04-28T12:18:33;100605.00;;;22.77;43.68
56518;BME280;42419;48.760;2.322;2023-04-28T12:20:59;100598.69;;;22.78;43.73
56518;BME280;42419;48.760;2.322;2023-04-28T12:23:32;100594.50;;;22.73;43.63
56518;BME280;42419;48.760;2.322;2023-04-28T12:25:58;100605.88;;;22.78;43.60
56518;BME280;42419;48.760;2.322;2023-04-28T12:28:38;100605.00;;;22.77;44.21
56518;BME280;42419;48.760;2.322;2023-04-28T12:31:07;100611.16;;;22.79;44.02
56518;BME280;42419;48.760;2.322;2023-04-28T12:33:34;100606.75;;;22.78;43.98
56518;BME280;42419;48.760;2.322;2023-04-28T12:36:03;100620.16;;;22.78;44.07
56518;BME280;42419;48.760;2.322;2023-04-28T12:38:30;100620.09;;;22.80;44.15
56518;BME280;42419;48.760;2.322;2023-04-28T12:40:56;100618.34;;;22.79;43.71
56518;BME280;42419;48.760;2.322;2023-04-28T12:43:21;100611.47;;;22.73;43.94
56518;BME280;42419;48.760;2.322;2023-04-28T12:45:52;100629.16;;;22.77;43.98
56518;BME280;42419;48.760;2.322;2023-04-28T12:48:17;100623.84;;;22.76;43.71
56518;BME280;42419;48.760;2.322;2023-04-28T12:50:43;100618.91;;;22.68;44.00
56518;BME280;42419;48.760;2.322;2023-04-28T12:53:08;100618.91;;;22.68;44.02
56518;BME280;42419;48.760;2.322;2023-04-28T12:55:34;100615.28;;;22.69;43.92
56518;BME280;42419;48.760;2.322;2023-04-28T12:57:59;100608.50;;;22.62;43.72
56518;BME280;42419;48.760;2.322;2023-04-28T13:00:24;100605.81;;;22.62;43.55
56518;BME280;42419;48.760;2.322;2023-04-28T13:02:50;100599.09;;;22.54;43.86
56518;BME280;42419;48.760;2.322;2023-04-28T13:05:16;100614.94;;;22.58;43.67
56518;BME280;42419;48.760;2.322;2023-04-28T13:07:43;100623.81;;;22.60;43.78